Nisshoumaru — JD3093 — position and weather

sailwx.info

Track history (hours):
 
Tides and Currents Weather Stations Pressure Air Temp Water Temp Dewpoint Dewpoint Depression Visibility Wind Speed Wind Dir Waves Ship Positions

Nisshoumaru

Last reported at 2015-Jul-05 09:29 UTC. Time now 2015-Jul-07 02:32 UTC.
Position N 35°16' E 140°31'.

Length 76 m; draft 4 m.

Type: Cargo ship. MMSI: 431001549.

Date/timePositionNaut miles runAvg speedWind from/ knotsBaromVisibWave heightAir tempDewpointWater temp
2015-Jul-05 09:29N 35°16' E 140°31'2412.3
2015-Jul-05 07:31N 34°60' E 140°09'26010.9
2015-Jul-04 07:31N 34°11' E 134°59'1414.0
2015-Jul-04 06:33N 34°25' E 135°01'1212.4
2015-Jul-04 05:33N 34°37' E 135°00'10 0.7
2015-Jul-03 14:16N 34°40' E 134°49'0 0.0
2015-Jul-03 10:26N 34°40' E 134°49'  
2015-Jun-29 08:17N 34°07' E 134°42'27111.2
2015-Jun-28 08:10N 34°58' E 140°05'2612.5
2015-Jun-28 06:07N 35°14' E 140°29'712.3
2015-Jun-28 05:33N 35°20' E 140°34'3410.8
2015-Jun-28 02:23N 35°52' E 140°48'6 7.4
2015-Jun-28 01:33N 35°56' E 140°42'2 1.8
2015-Jun-28 00:33N 35°56' E 140°40'0 0.0
2015-Jun-27 22:33N 35°56' E 140°40'0 0.0
2015-Jun-27 21:33N 35°56' E 140°40'0 0.0
2015-Jun-27 19:33N 35°56' E 140°40'0 0.0
2015-Jun-27 18:32N 35°56' E 140°40'0 0.0
2015-Jun-27 17:32N 35°56' E 140°40'0 0.0
2015-Jun-27 16:33N 35°56' E 140°40'0 0.0
2015-Jun-27 15:33N 35°56' E 140°40'0 0.0
2015-Jun-27 14:32N 35°56' E 140°40'0 0.0
2015-Jun-27 13:31N 35°56' E 140°40'0 0.0
2015-Jun-27 12:31N 35°56' E 140°40'0 0.0
2015-Jun-27 11:28N 35°56' E 140°40'0 0.0
2015-Jun-27 10:30N 35°56' E 140°40'0 0.0
2015-Jun-27 08:27N 35°56' E 140°40'0 0.0
2015-Jun-27 07:33N 35°56' E 140°40'0 0.0
2015-Jun-27 06:33N 35°56' E 140°40'0 0.0
2015-Jun-27 05:30N 35°56' E 140°40'0 0.0
2015-Jun-27 04:32N 35°56' E 140°40'0 0.0
2015-Jun-27 03:31N 35°56' E 140°40'0 0.0
2015-Jun-27 00:27N 35°56' E 140°40'0 0.0
2015-Jun-26 23:33N 35°56' E 140°40'0 0.0
2015-Jun-26 22:33N 35°56' E 140°40'0 0.0
2015-Jun-26 21:30N 35°56' E 140°40'0 0.0
2015-Jun-26 20:32N 35°56' E 140°40'0 0.0
2015-Jun-26 19:29N 35°56' E 140°40'0 0.0
2015-Jun-26 18:33N 35°56' E 140°40'0 0.0
2015-Jun-26 17:29N 35°56' E 140°40'0 0.0
2015-Jun-26 16:29N 35°56' E 140°40'0 0.0
2015-Jun-26 15:33N 35°56' E 140°40'0 0.0
2015-Jun-26 14:32N 35°56' E 140°40'0 0.0
2015-Jun-26 13:33N 35°56' E 140°40'0 0.0
2015-Jun-26 12:31N 35°56' E 140°40'0 0.0
2015-Jun-26 11:33N 35°56' E 140°40'  
Track history (hours):
 
Tides and Currents Weather Stations Pressure Air Temp Water Temp Dewpoint Dewpoint Depression Visibility Wind Speed Wind Dir Waves Ship Positions

Nisshoumaru

Last reported at 2015-Jul-05 09:29 UTC. Time now 2015-Jul-07 02:32 UTC.
Position N 35°16' E 140°31'.

Length 76 m; draft 4 m.

Type: Cargo ship. MMSI: 431001549.

Date/timePositionNaut miles runAvg speedWind from/ knotsBaromVisibWave heightAir tempDewpointWater temp
2015-Jul-05 09:29N 35°16' E 140°31'2412.3
2015-Jul-05 07:31N 34°60' E 140°09'26010.9
2015-Jul-04 07:31N 34°11' E 134°59'1414.0
2015-Jul-04 06:33N 34°25' E 135°01'1212.4
2015-Jul-04 05:33N 34°37' E 135°00'10 0.7
2015-Jul-03 14:16N 34°40' E 134°49'0 0.0
2015-Jul-03 10:26N 34°40' E 134°49'  
2015-Jun-29 08:17N 34°07' E 134°42'27111.2
2015-Jun-28 08:10N 34°58' E 140°05'2612.5
2015-Jun-28 06:07N 35°14' E 140°29'712.3
2015-Jun-28 05:33N 35°20' E 140°34'3410.8
2015-Jun-28 02:23N 35°52' E 140°48'6 7.4
2015-Jun-28 01:33N 35°56' E 140°42'2 1.8
2015-Jun-28 00:33N 35°56' E 140°40'0 0.0
2015-Jun-27 22:33N 35°56' E 140°40'0 0.0
2015-Jun-27 21:33N 35°56' E 140°40'0 0.0
2015-Jun-27 19:33N 35°56' E 140°40'0 0.0
2015-Jun-27 18:32N 35°56' E 140°40'0 0.0
2015-Jun-27 17:32N 35°56' E 140°40'0 0.0
2015-Jun-27 16:33N 35°56' E 140°40'0 0.0
2015-Jun-27 15:33N 35°56' E 140°40'0 0.0
2015-Jun-27 14:32N 35°56' E 140°40'0 0.0
2015-Jun-27 13:31N 35°56' E 140°40'0 0.0
2015-Jun-27 12:31N 35°56' E 140°40'0 0.0
2015-Jun-27 11:28N 35°56' E 140°40'0 0.0
2015-Jun-27 10:30N 35°56' E 140°40'0 0.0
2015-Jun-27 08:27N 35°56' E 140°40'0 0.0
2015-Jun-27 07:33N 35°56' E 140°40'0 0.0
2015-Jun-27 06:33N 35°56' E 140°40'0 0.0
2015-Jun-27 05:30N 35°56' E 140°40'0 0.0
2015-Jun-27 04:32N 35°56' E 140°40'0 0.0
2015-Jun-27 03:31N 35°56' E 140°40'0 0.0
2015-Jun-27 00:27N 35°56' E 140°40'0 0.0
2015-Jun-26 23:33N 35°56' E 140°40'0 0.0
2015-Jun-26 22:33N 35°56' E 140°40'0 0.0
2015-Jun-26 21:30N 35°56' E 140°40'0 0.0
2015-Jun-26 20:32N 35°56' E 140°40'0 0.0
2015-Jun-26 19:29N 35°56' E 140°40'0 0.0
2015-Jun-26 18:33N 35°56' E 140°40'0 0.0
2015-Jun-26 17:29N 35°56' E 140°40'0 0.0
2015-Jun-26 16:29N 35°56' E 140°40'0 0.0
2015-Jun-26 15:33N 35°56' E 140°40'0 0.0
2015-Jun-26 14:32N 35°56' E 140°40'0 0.0
2015-Jun-26 13:33N 35°56' E 140°40'0 0.0
2015-Jun-26 12:31N 35°56' E 140°40'0 0.0
2015-Jun-26 11:33N 35°56' E 140°40'  

Dump ship's entire track history